Time;durP1;ratioP1;P1;durP2;ratioP2;P2;SDS_P1;SDS_P2;PMS_P1;PMS_P2;Temp;Humidity;BMP_temperature;BMP_pressure;BME280_temperature;BME280_humidity;BME280_pressure;Samples;Min_cycle;Max_cycle;Signal;HPM_P1;HPM_P2
2021/09/03 00:01:43;;;;;;;8.30;4.43;;;14.10;99.90;;;;;;4952056;28;20472;-65
2021/09/03 00:04:10;;;;;;;7.47;5.43;;;14.10;99.90;;;;;;4953637;28;20043;-65
2021/09/03 00:06:37;;;;;;;7.03;4.88;;;14.10;99.90;;;;;;4953422;28;20047;-63
2021/09/03 00:09:04;;;;;;;6.05;4.03;;;14.00;99.90;;;;;;4953922;28;20178;-66
2021/09/03 00:11:31;;;;;;;6.38;4.57;;;14.00;99.90;;;;;;4953743;28;20214;-60
2021/09/03 00:13:58;;;;;;;7.50;5.07;;;14.00;99.90;;;;;;4952097;28;20126;-63
2021/09/03 00:16:25;;;;;;;7.22;5.03;;;13.90;99.90;;;;;;4953528;28;20047;-65
2021/09/03 00:18:52;;;;;;;6.78;3.95;;;14.00;99.90;;;;;;4953489;28;20078;-62
2021/09/03 00:21:19;;;;;;;7.78;4.55;;;13.90;99.90;;;;;;4953631;28;20078;-65
2021/09/03 00:23:46;;;;;;;4.75;3.80;;;13.80;99.90;;;;;;4951893;28;20159;-66
2021/09/03 00:26:12;;;;;;;5.82;3.40;;;13.80;99.90;;;;;;4953418;28;20126;-63
2021/09/03 00:28:40;;;;;;;7.25;4.05;;;13.70;99.90;;;;;;4953195;28;20434;-66
2021/09/03 00:31:07;;;;;;;5.63;3.88;;;13.70;99.90;;;;;;4953070;28;20485;-66
2021/09/03 00:33:34;;;;;;;7.63;4.43;;;13.70;99.90;;;;;;4953586;28;20074;-64
2021/09/03 00:36:00;;;;;;;13.27;6.28;;;13.60;99.90;;;;;;4951471;28;20138;-66
2021/09/03 00:38:27;;;;;;;8.73;5.05;;;13.60;99.90;;;;;;4952640;28;20074;-64
2021/09/03 00:40:54;;;;;;;9.93;5.53;;;13.60;99.90;;;;;;4952816;28;20051;-63
2021/09/03 00:43:21;;;;;;;6.68;5.97;;;13.60;99.90;;;;;;4953067;28;20058;-67
2021/09/03 00:45:48;;;;;;;6.60;5.25;;;13.70;99.90;;;;;;4951379;28;20555;-62
2021/09/03 00:48:15;;;;;;;8.50;4.78;;;13.80;99.90;;;;;;4952962;28;20130;-62
2021/09/03 00:50:44;;;;;;;6.15;5.55;;;13.90;99.90;;;;;;4952805;28;20541;-63
2021/09/03 00:53:11;;;;;;;7.50;5.60;;;13.90;99.90;;;;;;4952978;28;20135;-65
2021/09/03 00:55:38;;;;;;;7.93;5.55;;;14.00;99.90;;;;;;4952381;28;20585;-63
2021/09/03 00:58:04;;;;;;;6.40;4.32;;;14.10;99.90;;;;;;4951106;28;20047;-64
2021/09/03 01:00:31;;;;;;;9.40;5.38;;;14.10;99.90;;;;;;4952819;28;20614;-64
2021/09/03 01:02:58;;;;;;;6.22;4.93;;;14.20;99.90;;;;;;4952235;28;20047;-67
2021/09/03 01:05:26;;;;;;;8.02;5.45;;;14.20;99.90;;;;;;4952124;28;20043;-65
2021/09/03 01:07:53;;;;;;;7.22;5.03;;;14.20;99.90;;;;;;4950879;28;20051;-65
2021/09/03 01:10:22;;;;;;;11.10;5.63;;;14.20;99.90;;;;;;4952355;28;20178;-63
2021/09/03 01:12:50;;;;;;;7.10;5.32;;;14.20;99.90;;;;;;4952133;28;20477;-64
2021/09/03 01:15:18;;;;;;;8.00;6.40;;;14.20;99.90;;;;;;4952403;28;20137;-64
2021/09/03 01:17:45;;;;;;;9.32;5.68;;;14.20;99.90;;;;;;4950561;28;20150;-64
2021/09/03 01:20:12;;;;;;;14.70;6.78;;;14.20;99.90;;;;;;4951973;28;20043;-65
2021/09/03 01:22:39;;;;;;;7.13;5.63;;;14.30;99.90;;;;;;4952342;28;20537;-67
2021/09/03 01:25:08;;;;;;;11.43;7.57;;;14.20;99.90;;;;;;4952183;28;20174;-65
2021/09/03 01:27:35;;;;;;;6.00;5.40;;;14.30;99.90;;;;;;4952453;28;20079;-65
2021/09/03 01:30:08;;;;;;;6.80;5.13;;;14.30;99.90;;;;;;4950604;28;20626;-64
2021/09/03 01:32:35;;;;;;;12.20;6.72;;;14.20;99.90;;;;;;4952009;28;20158;-63
2021/09/03 01:35:03;;;;;;;8.23;5.78;;;14.20;99.90;;;;;;4952276;28;20134;-65
2021/09/03 01:37:30;;;;;;;6.63;5.47;;;14.20;99.90;;;;;;4952072;28;20051;-63
2021/09/03 01:39:57;;;;;;;7.40;5.90;;;14.20;99.90;;;;;;4950544;28;20473;-62
2021/09/03 01:42:24;;;;;;;9.07;5.65;;;14.20;99.90;;;;;;4952141;28;20151;-65
2021/09/03 01:44:51;;;;;;;8.68;7.15;;;14.20;99.90;;;;;;4951786;28;20136;-66
2021/09/03 01:47:18;;;;;;;8.65;6.68;;;14.10;99.90;;;;;;4951883;28;20082;-65
2021/09/03 01:49:45;;;;;;;8.93;5.60;;;14.10;99.90;;;;;;4950438;28;20130;-65
2021/09/03 01:52:12;;;;;;;13.32;7.03;;;14.10;99.90;;;;;;4952018;28;20121;-64
2021/09/03 01:54:39;;;;;;;7.43;6.63;;;14.10;99.90;;;;;;4951397;28;20466;-65
2021/09/03 01:57:05;;;;;;;10.70;7.97;;;14.10;99.90;;;;;;4951669;28;20051;-65
2021/09/03 01:59:32;;;;;;;9.98;6.95;;;14.00;99.90;;;;;;4951772;28;20500;-65
2021/09/03 02:01:59;;;;;;;14.80;7.13;;;14.00;99.90;;;;;;4950098;28;20079;-64
2021/09/03 02:04:27;;;;;;;15.68;6.50;;;14.00;99.90;;;;;;4951840;28;20392;-63
2021/09/03 02:06:54;;;;;;;9.75;7.65;;;13.90;99.90;;;;;;4951584;28;20069;-64
2021/09/03 02:09:20;;;;;;;12.85;7.38;;;14.00;99.90;;;;;;4951587;28;20051;-62
2021/09/03 02:11:48;;;;;;;11.20;7.60;;;13.90;99.90;;;;;;4950344;28;20098;-65
2021/09/03 02:14:15;;;;;;;11.10;7.70;;;13.90;99.90;;;;;;4951495;28;20506;-65
2021/09/03 02:16:41;;;;;;;10.65;8.52;;;13.90;99.90;;;;;;4951588;28;20437;-67
2021/09/03 02:19:09;;;;;;;14.15;8.07;;;13.90;99.90;;;;;;4951212;28;20053;-65
2021/09/03 02:21:37;;;;;;;13.27;7.75;;;13.90;99.90;;;;;;4951801;28;20089;-65
2021/09/03 02:24:05;;;;;;;10.55;7.45;;;14.00;99.90;;;;;;4950185;28;20131;-62
2021/09/03 02:26:32;;;;;;;15.27;9.00;;;14.00;99.90;;;;;;4951459;28;20434;-66
2021/09/03 02:28:59;;;;;;;16.85;9.05;;;14.00;99.90;;;;;;4951701;28;20131;-63
2021/09/03 02:31:26;;;;;;;12.43;8.40;;;14.00;99.90;;;;;;4951623;28;20547;-63
2021/09/03 02:33:53;;;;;;;12.52;8.73;;;14.00;99.90;;;;;;4950055;28;20058;-63
2021/09/03 02:36:19;;;;;;;19.00;9.60;;;14.00;99.90;;;;;;4951343;28;20122;-64
2021/09/03 02:38:46;;;;;;;12.40;10.35;;;14.00;99.90;;;;;;4951472;28;20126;-62
2021/09/03 02:41:13;;;;;;;9.10;8.15;;;14.00;99.90;;;;;;4951555;28;20517;-63
2021/09/03 02:43:40;;;;;;;11.65;7.82;;;14.00;99.90;;;;;;4951443;28;20159;-63
2021/09/03 02:46:07;;;;;;;15.75;8.40;;;14.00;99.90;;;;;;4949648;28;20152;-64
2021/09/03 02:48:34;;;;;;;9.68;6.28;;;14.00;99.90;;;;;;4951000;28;20386;-66
2021/09/03 02:51:01;;;;;;;7.90;6.70;;;14.00;99.90;;;;;;4951514;28;20126;-65
2021/09/03 02:53:27;;;;;;;14.82;7.22;;;14.00;99.90;;;;;;4951359;28;20134;-63
2021/09/03 02:55:54;;;;;;;7.93;6.63;;;14.00;99.90;;;;;;4949797;28;20082;-66
2021/09/03 02:58:21;;;;;;;11.25;7.90;;;14.00;99.90;;;;;;4951323;28;20063;-63
2021/09/03 03:00:48;;;;;;;7.50;6.15;;;13.90;99.90;;;;;;4953479;28;20048;-64
2021/09/03 03:03:15;;;;;;;8.40;6.20;;;14.00;99.90;;;;;;4954824;28;20051;-65
2021/09/03 03:05:42;;;;;;;15.32;7.95;;;14.00;99.90;;;;;;4953326;28;20462;-64
2021/09/03 03:08:09;;;;;;;8.35;6.07;;;14.00;99.90;;;;;;4954528;28;20139;-63
2021/09/03 03:10:36;;;;;;;6.68;4.60;;;14.00;99.90;;;;;;4954863;28;20066;-65
2021/09/03 03:13:20;;;;;;;8.10;5.28;;;13.90;99.90;;;;;;4954714;28;20134;-64
2021/09/03 03:15:48;;;;;;;7.72;5.18;;;14.00;99.90;;;;;;4953297;28;20074;-63
2021/09/03 03:18:15;;;;;;;8.88;5.20;;;14.00;99.90;;;;;;4954626;28;20048;-64
2021/09/03 03:20:45;;;;;;;6.53;5.25;;;14.00;99.90;;;;;;4954137;28;20148;-63
2021/09/03 03:23:12;;;;;;;8.05;4.53;;;14.00;99.90;;;;;;4954514;28;20077;-63
2021/09/03 03:25:39;;;;;;;7.38;5.00;;;14.00;99.90;;;;;;4954304;28;20138;-63
2021/09/03 03:28:07;;;;;;;7.18;4.55;;;14.00;99.90;;;;;;4952539;28;20083;-66
2021/09/03 03:30:34;;;;;;;7.65;4.85;;;14.00;99.90;;;;;;4954080;28;20406;-67
2021/09/03 03:33:01;;;;;;;5.93;4.65;;;14.00;99.90;;;;;;4953901;28;20523;-65
2021/09/03 03:35:28;;;;;;;6.20;3.80;;;14.00;99.90;;;;;;4954011;28;20097;-66
2021/09/03 03:37:55;;;;;;;6.97;4.25;;;14.00;99.90;;;;;;4952696;28;20081;-66
2021/09/03 03:40:22;;;;;;;5.47;4.15;;;14.00;99.90;;;;;;4953997;28;20070;-64
2021/09/03 03:42:49;;;;;;;5.80;4.65;;;14.00;99.90;;;;;;4953725;28;20441;-66
2021/09/03 03:45:17;;;;;;;6.97;4.32;;;14.00;99.90;;;;;;4953819;28;20073;-64
2021/09/03 03:47:54;;;;;;;4.05;3.30;;;14.00;99.90;;;;;;4952211;28;20055;-67
2021/09/03 03:50:21;;;;;;;3.80;2.90;;;14.00;99.90;;;;;;4953704;28;20062;-64
2021/09/03 03:52:48;;;;;;;6.43;2.80;;;14.10;99.90;;;;;;4953699;28;20049;-62
2021/09/03 03:55:14;;;;;;;5.28;2.95;;;14.00;99.90;;;;;;4953583;28;20466;-66
2021/09/03 03:57:41;;;;;;;3.58;2.63;;;14.10;99.90;;;;;;4953802;28;20217;-63
2021/09/03 04:00:09;;;;;;;4.60;2.67;;;14.10;99.90;;;;;;4966506;28;20070;-66
2021/09/03 04:02:36;;;;;;;4.35;2.58;;;14.10;99.90;;;;;;4952949;28;20067;-65
2021/09/03 04:05:03;;;;;;;4.20;2.53;;;14.10;99.90;;;;;;4953598;28;20390;-64
2021/09/03 04:07:31;;;;;;;4.80;2.53;;;14.20;99.90;;;;;;4952814;28;20058;-66
2021/09/03 04:09:58;;;;;;;4.57;3.08;;;14.10;99.90;;;;;;4951438;28;20387;-65
2021/09/03 04:12:25;;;;;;;7.28;2.70;;;14.20;99.90;;;;;;4952732;28;20564;-64
2021/09/03 04:14:52;;;;;;;5.93;2.88;;;14.10;99.90;;;;;;4953410;28;20549;-65
2021/09/03 04:17:19;;;;;;;3.40;3.03;;;14.10;99.90;;;;;;4953322;28;20551;-63
2021/09/03 04:19:46;;;;;;;3.40;2.80;;;14.10;99.90;;;;;;4951350;28;20074;-65
2021/09/03 04:22:12;;;;;;;3.00;2.00;;;14.10;99.90;;;;;;4953014;28;20063;-67
2021/09/03 04:24:43;;;;;;;3.53;2.45;;;14.10;99.90;;;;;;4952833;28;20043;-66
2021/09/03 04:27:10;;;;;;;5.82;2.63;;;14.10;99.90;;;;;;4953036;28;20182;-63
2021/09/03 04:29:37;;;;;;;3.08;2.78;;;14.10;99.90;;;;;;4953082;28;20110;-63
2021/09/03 04:32:04;;;;;;;4.85;3.45;;;14.10;99.90;;;;;;4951420;28;20078;-64
2021/09/03 04:34:31;;;;;;;6.95;3.15;;;14.10;99.90;;;;;;4952981;28;20066;-65
2021/09/03 04:36:58;;;;;;;8.93;3.92;;;14.10;99.90;;;;;;4952594;28;20130;-63
2021/09/03 04:39:25;;;;;;;6.57;4.65;;;14.10;99.90;;;;;;4952617;28;20581;-65
2021/09/03 04:41:52;;;;;;;11.15;5.22;;;14.10;99.90;;;;;;4950748;28;20081;-67
2021/09/03 04:44:18;;;;;;;8.65;6.95;;;14.10;99.90;;;;;;4952257;28;20130;-66
2021/09/03 04:46:45;;;;;;;12.98;6.97;;;14.10;99.90;;;;;;4952134;28;20111;-64
2021/09/03 04:49:12;;;;;;;14.30;7.35;;;14.10;99.90;;;;;;4952307;28;20513;-63
2021/09/03 04:51:39;;;;;;;9.30;7.15;;;14.10;99.90;;;;;;4952575;28;20134;-63
2021/09/03 04:54:06;;;;;;;10.70;7.65;;;14.10;99.90;;;;;;4950442;28;20093;-65
2021/09/03 04:56:33;;;;;;;14.02;7.72;;;14.10;99.90;;;;;;4952104;28;20110;-66
2021/09/03 04:59:00;;;;;;;9.95;7.78;;;14.10;99.90;;;;;;4951889;28;20323;-66
2021/09/03 05:01:27;;;;;;;14.70;7.63;;;14.10;99.90;;;;;;4951835;28;20491;-65
2021/09/03 05:03:54;;;;;;;10.15;7.38;;;14.10;99.90;;;;;;4950473;28;20059;-66
2021/09/03 05:06:21;;;;;;;8.73;7.45;;;14.10;99.90;;;;;;4952270;28;20095;-63
2021/09/03 05:08:48;;;;;;;9.60;7.20;;;14.10;99.90;;;;;;4952059;28;20070;-64
2021/09/03 05:11:15;;;;;;;10.35;7.88;;;14.10;99.90;;;;;;4951875;28;20083;-63
2021/09/03 05:13:43;;;;;;;6.47;4.88;;;14.10;99.90;;;;;;4950683;28;20051;-64
2021/09/03 05:16:10;;;;;;;7.25;5.65;;;14.10;99.90;;;;;;4951886;28;20067;-65
2021/09/03 05:18:37;;;;;;;8.07;5.93;;;14.10;99.90;;;;;;4952161;28;20106;-63
2021/09/03 05:21:07;;;;;;;10.18;4.97;;;14.20;99.90;;;;;;4952167;28;20135;-61
2021/09/03 05:23:35;;;;;;;9.00;5.68;;;14.20;99.90;;;;;;4951637;28;20070;-62
2021/09/03 05:26:02;;;;;;;8.38;6.10;;;14.20;99.90;;;;;;4950363;28;20403;-64
2021/09/03 05:28:29;;;;;;;8.07;5.60;;;14.20;99.90;;;;;;4951747;28;20067;-66
2021/09/03 05:30:56;;;;;;;8.02;5.60;;;14.20;99.90;;;;;;4951941;28;20075;-64
2021/09/03 05:33:23;;;;;;;11.73;5.22;;;14.10;99.90;;;;;;4952036;28;20051;-62
2021/09/03 05:35:50;;;;;;;8.02;4.97;;;14.10;99.90;;;;;;4950499;28;20106;-66
2021/09/03 05:38:17;;;;;;;4.20;3.78;;;14.20;99.90;;;;;;4952003;28;20081;-63
2021/09/03 05:40:44;;;;;;;7.88;4.70;;;14.20;99.90;;;;;;4951769;28;20449;-65
2021/09/03 05:43:11;;;;;;;5.85;3.90;;;14.20;99.90;;;;;;4951890;28;20409;-62
2021/09/03 05:45:37;;;;;;;7.38;5.35;;;14.20;99.90;;;;;;4952123;28;20075;-66
2021/09/03 05:48:06;;;;;;;6.55;5.20;;;14.10;99.90;;;;;;4950352;28;20097;-63
2021/09/03 05:50:33;;;;;;;9.63;4.70;;;14.20;99.90;;;;;;4952335;28;20079;-66
2021/09/03 05:53:00;;;;;;;5.10;4.63;;;14.20;99.90;;;;;;4952135;28;20047;-64
2021/09/03 05:55:27;;;;;;;5.47;3.95;;;14.20;99.90;;;;;;4951888;28;20102;-62
2021/09/03 05:57:55;;;;;;;5.60;4.43;;;14.20;99.90;;;;;;4950384;28;20533;-64
2021/09/03 06:00:21;;;;;;;4.25;3.78;;;14.20;99.90;;;;;;4951420;28;20110;-65
2021/09/03 06:02:48;;;;;;;4.85;3.25;;;14.30;99.90;;;;;;4951628;28;20457;-60
2021/09/03 06:05:16;;;;;;;5.78;4.95;;;14.30;99.90;;;;;;4951300;28;20053;-62
2021/09/03 06:07:43;;;;;;;5.97;3.20;;;14.30;99.90;;;;;;4950042;28;20135;-67
2021/09/03 06:10:11;;;;;;;8.73;3.97;;;14.30;99.90;;;;;;4951545;28;20047;-67
2021/09/03 06:12:38;;;;;;;8.32;3.85;;;14.30;99.90;;;;;;4951782;28;20063;-62
2021/09/03 06:15:07;;;;;;;6.47;4.40;;;14.30;99.90;;;;;;4951303;28;20067;-64
2021/09/03 06:17:35;;;;;;;6.13;3.10;;;14.30;99.90;;;;;;4951315;28;20505;-62
2021/09/03 06:20:05;;;;;;;6.70;3.20;;;14.30;99.90;;;;;;4949890;28;20134;-63
2021/09/03 06:22:31;;;;;;;5.95;3.78;;;14.30;99.90;;;;;;4951343;28;20051;-66
2021/09/03 06:24:58;;;;;;;3.13;2.80;;;14.30;99.90;;;;;;4951328;28;20610;-64
2021/09/03 06:27:26;;;;;;;5.93;3.30;;;14.30;99.90;;;;;;4951345;28;20106;-64
2021/09/03 06:29:53;;;;;;;7.03;3.45;;;14.30;99.90;;;;;;4950184;28;20463;-65
2021/09/03 06:32:22;;;;;;;4.38;3.00;;;14.20;99.90;;;;;;4965569;28;20066;-63
2021/09/03 06:34:54;;;;;;;5.30;3.25;;;14.30;99.90;;;;;;4951745;28;20062;-61
2021/09/03 06:37:22;;;;;;;6.18;4.88;;;14.30;99.90;;;;;;4955085;28;20094;-62
2021/09/03 06:39:49;;;;;;;4.82;2.90;;;14.30;99.90;;;;;;4953668;28;20071;-62
2021/09/03 06:42:17;;;;;;;3.97;3.08;;;14.40;99.90;;;;;;4955295;28;20051;-64
2021/09/03 06:44:44;;;;;;;4.68;3.45;;;14.30;99.90;;;;;;4955244;28;20044;-63
2021/09/03 06:47:13;;;;;;;5.68;3.30;;;14.40;99.90;;;;;;4955005;28;20063;-63
2021/09/03 06:49:40;;;;;;;10.77;4.05;;;14.30;99.90;;;;;;4955177;28;20047;-62
2021/09/03 06:52:08;;;;;;;3.90;2.70;;;14.30;99.90;;;;;;4953452;28;20071;-65
2021/09/03 06:54:36;;;;;;;5.15;3.67;;;14.40;99.90;;;;;;4954819;28;20071;-62
2021/09/03 06:57:04;;;;;;;5.22;3.42;;;14.40;99.90;;;;;;4954896;28;20466;-65
2021/09/03 06:59:31;;;;;;;4.60;3.78;;;14.40;99.90;;;;;;4954847;28;20071;-60
2021/09/03 07:01:58;;;;;;;8.45;3.75;;;14.40;99.90;;;;;;4952695;28;20138;-64
2021/09/03 07:04:26;;;;;;;4.07;2.78;;;14.40;99.90;;;;;;4954552;28;20047;-63
2021/09/03 07:06:53;;;;;;;5.93;3.38;;;14.40;99.90;;;;;;4954618;28;20082;-64
2021/09/03 07:09:20;;;;;;;7.30;3.20;;;14.50;99.90;;;;;;4954584;28;20043;-61
2021/09/03 07:11:47;;;;;;;4.80;3.53;;;14.50;99.90;;;;;;4953188;28;20446;-62
2021/09/03 07:14:14;;;;;;;4.20;2.90;;;14.50;99.90;;;;;;4954567;28;20047;-63
2021/09/03 07:16:40;;;;;;;6.53;3.50;;;14.50;99.90;;;;;;4954481;28;20130;-64
2021/09/03 07:19:07;;;;;;;7.47;2.80;;;14.40;99.90;;;;;;4954605;28;20073;-64
2021/09/03 07:21:34;;;;;;;4.28;2.95;;;14.50;99.90;;;;;;4954388;28;20083;-61
2021/09/03 07:24:02;;;;;;;4.95;3.83;;;14.40;99.90;;;;;;4952629;28;20134;-62
2021/09/03 07:26:29;;;;;;;6.55;2.92;;;14.40;99.90;;;;;;4954264;28;20055;-60
2021/09/03 07:28:57;;;;;;;5.25;3.30;;;14.40;99.90;;;;;;4954195;28;20498;-64
2021/09/03 07:31:24;;;;;;;5.38;3.47;;;14.40;99.90;;;;;;4954172;28;20481;-63
2021/09/03 07:33:51;;;;;;;5.03;3.30;;;14.40;99.90;;;;;;4952562;28;20387;-62
2021/09/03 07:36:18;;;;;;;5.85;3.30;;;14.40;99.90;;;;;;4953852;28;20083;-63
2021/09/03 07:38:45;;;;;;;4.88;2.97;;;14.40;99.90;;;;;;4953915;28;20475;-62
2021/09/03 07:41:12;;;;;;;5.15;3.38;;;14.50;99.90;;;;;;4953996;28;20047;-63
2021/09/03 07:43:39;;;;;;;5.47;4.07;;;14.50;99.90;;;;;;4953951;28;20479;-61
2021/09/03 07:46:06;;;;;;;5.25;3.75;;;14.50;99.90;;;;;;4951480;28;20342;-65
2021/09/03 07:48:34;;;;;;;4.50;3.28;;;14.50;99.90;;;;;;4953613;28;20069;-60
2021/09/03 07:51:02;;;;;;;6.68;3.63;;;14.50;99.90;;;;;;4953497;28;20051;-61
2021/09/03 07:53:29;;;;;;;8.65;3.47;;;14.50;99.90;;;;;;4953615;28;20537;-59
2021/09/03 07:55:56;;;;;;;4.93;3.53;;;14.60;99.90;;;;;;4951900;28;20078;-67
2021/09/03 07:58:23;;;;;;;4.97;2.97;;;14.50;99.90;;;;;;4953292;28;20050;-64
2021/09/03 08:00:50;;;;;;;6.38;4.40;;;14.50;99.90;;;;;;4953524;28;20082;-63
2021/09/03 08:03:17;;;;;;;10.07;3.10;;;14.50;99.90;;;;;;4953328;28;20376;-63
2021/09/03 08:05:44;;;;;;;4.72;3.00;;;14.50;99.90;;;;;;4951950;28;20047;-63
2021/09/03 08:08:11;;;;;;;8.05;3.67;;;14.50;99.90;;;;;;4953303;28;20470;-62
2021/09/03 08:10:38;;;;;;;5.32;3.03;;;14.40;99.90;;;;;;4953561;28;20047;-63
2021/09/03 08:13:08;;;;;;;7.07;3.58;;;14.50;99.90;;;;;;4953071;28;20098;-64
2021/09/03 08:15:35;;;;;;;6.57;4.03;;;14.50;99.90;;;;;;4953266;28;20086;-63
2021/09/03 08:18:03;;;;;;;5.72;3.13;;;14.60;99.90;;;;;;4951142;28;20073;-64
2021/09/03 08:20:31;;;;;;;4.40;3.97;;;14.60;99.90;;;;;;4953137;28;20075;-64
2021/09/03 08:23:03;;;;;;;9.95;3.15;;;14.60;99.90;;;;;;4953008;28;20073;-64
2021/09/03 08:25:30;;;;;;;3.67;3.22;;;14.60;99.90;;;;;;4953162;28;20129;-62
2021/09/03 08:27:57;;;;;;;5.28;3.33;;;14.60;99.90;;;;;;4951233;28;20106;-65
2021/09/03 08:30:24;;;;;;;3.83;2.78;;;14.70;99.90;;;;;;4967726;28;20112;-65
2021/09/03 08:32:51;;;;;;;4.43;2.97;;;14.70;99.90;;;;;;4953122;28;20047;-66
2021/09/03 08:35:17;;;;;;;7.15;3.60;;;14.80;99.90;;;;;;4953166;28;20142;-60
2021/09/03 08:37:44;;;;;;;5.05;2.75;;;14.70;99.90;;;;;;4951532;28;20656;-66
2021/09/03 08:40:13;;;;;;;9.60;3.60;;;14.70;99.90;;;;;;4952556;28;20134;-66
2021/09/03 08:42:41;;;;;;;5.80;3.33;;;14.60;99.90;;;;;;4952719;28;20075;-62
2021/09/03 08:45:11;;;;;;;3.00;2.00;;;14.70;99.90;;;;;;4952676;28;20047;-62
2021/09/03 08:47:39;;;;;;;3.83;2.97;;;14.70;99.90;;;;;;4952569;28;20471;-60
2021/09/03 08:50:08;;;;;;;5.90;2.10;;;14.60;99.90;;;;;;4951231;28;20062;-62
2021/09/03 08:52:35;;;;;;;5.57;1.90;;;14.60;99.90;;;;;;4952774;28;20110;-62
2021/09/03 08:55:02;;;;;;;4.05;2.08;;;14.60;99.90;;;;;;4952829;28;20070;-66
2021/09/03 08:57:29;;;;;;;4.10;2.10;;;14.60;99.90;;;;;;4952077;28;20102;-61
2021/09/03 09:00:01;;;;;;;2.15;1.50;;;14.60;99.90;;;;;;4951020;28;20070;-65
2021/09/03 09:02:28;;;;;;;5.82;2.55;;;14.60;99.90;;;;;;4952317;28;20354;-62
2021/09/03 09:04:55;;;;;;;5.03;2.42;;;14.60;99.90;;;;;;4952596;28;20102;-62
2021/09/03 09:07:25;;;;;;;2.42;1.60;;;14.60;99.90;;;;;;4952474;28;20122;-64
2021/09/03 09:09:52;;;;;;;3.20;1.63;;;14.60;99.90;;;;;;4951028;28;20081;-63
2021/09/03 09:12:20;;;;;;;5.10;2.00;;;14.70;99.90;;;;;;4952411;28;20509;-64
2021/09/03 09:15:08;;;;;;;3.20;1.83;;;14.60;99.90;;;;;;4952583;28;20071;-67
2021/09/03 09:17:35;;;;;;;3.05;2.17;;;14.60;99.90;;;;;;4952640;28;20114;-63
2021/09/03 09:20:11;;;;;;;4.43;2.33;;;14.60;99.90;;;;;;4950937;28;20542;-63
2021/09/03 09:22:57;;;;;;;2.78;1.52;;;14.60;99.90;;;;;;4951963;28;20130;-62
2021/09/03 09:25:28;;;;;;;4.03;1.67;;;14.60;99.90;;;;;;4952275;28;20044;-63
2021/09/03 09:28:16;;;;;;;4.75;1.65;;;14.50;99.90;;;;;;4950820;28;20085;-62
2021/09/03 09:30:44;;;;;;;5.20;2.05;;;14.60;99.90;;;;;;4951581;28;20108;-65
2021/09/03 09:33:22;;;;;;;3.75;1.73;;;14.70;99.90;;;;;;4952214;28;20054;-63
2021/09/03 09:35:52;;;;;;;3.05;1.20;;;14.60;99.90;;;;;;4950368;28;20496;-63
2021/09/03 09:38:23;;;;;;;2.00;0.95;;;14.60;99.90;;;;;;4951721;28;20063;-63
2021/09/03 09:40:58;;;;;;;4.03;1.17;;;14.60;99.90;;;;;;4951575;28;20458;-63
2021/09/03 09:43:29;;;;;;;1.30;0.80;;;14.50;99.90;;;;;;4952030;28;20117;-63
2021/09/03 09:46:10;;;;;;;1.77;0.90;;;14.40;99.90;;;;;;4950117;28;20364;-65
2021/09/03 09:48:52;;;;;;;4.25;1.30;;;14.40;99.90;;;;;;4951656;28;20051;-64
2021/09/03 09:51:29;;;;;;;2.00;0.90;;;14.40;99.90;;;;;;4951746;28;20084;-61
2021/09/03 09:54:01;;;;;;;4.55;1.15;;;14.50;99.90;;;;;;4949562;28;20071;-62
2021/09/03 09:56:31;;;;;;;3.40;1.23;;;14.50;99.90;;;;;;4951783;28;20432;-64
2021/09/03 09:59:00;;;;;;;5.07;0.90;;;14.50;99.90;;;;;;4951323;28;20470;-66
2021/09/03 10:01:28;;;;;;;3.23;1.33;;;14.50;99.90;;;;;;4951479;28;20494;-64
2021/09/03 10:03:56;;;;;;;1.25;0.75;;;14.40;99.90;;;;;;4950217;28;20059;-64
2021/09/03 10:06:25;;;;;;;1.05;0.95;;;14.50;99.90;;;;;;4951723;28;20395;-64
2021/09/03 10:08:54;;;;;;;4.45;1.17;;;14.50;99.90;;;;;;4952669;28;20094;-64
2021/09/03 10:11:21;;;;;;;1.63;1.00;;;14.50;99.90;;;;;;4958162;28;20062;-64
2021/09/03 10:13:49;;;;;;;1.27;0.80;;;14.50;99.90;;;;;;4957861;28;20421;-66
2021/09/03 10:16:16;;;;;;;3.60;1.38;;;14.50;99.90;;;;;;4959549;28;20043;-63
2021/09/03 10:18:47;;;;;;;3.22;1.23;;;14.50;99.90;;;;;;4957541;28;20058;-66
2021/09/03 10:21:15;;;;;;;2.60;0.98;;;14.60;99.90;;;;;;4957944;28;20070;-63
2021/09/03 10:23:56;;;;;;;1.75;0.70;;;14.50;99.90;;;;;;4957730;28;20047;-67
2021/09/03 10:26:34;;;;;;;1.55;0.65;;;14.50;99.90;;;;;;4956878;28;20093;-64
2021/09/03 10:29:12;;;;;;;3.47;0.68;;;14.40;99.90;;;;;;4958463;28;20066;-67
2021/09/03 10:32:07;;;;;;;1.33;0.50;;;14.50;99.90;;;;;;4957893;28;20465;-66
2021/09/03 10:37:12;;;;;;;2.05;0.45;;;14.50;99.90;;;;;;4957618;28;20142;-62
2021/09/03 10:39:51;;;;;;;0.50;0.40;;;14.60;99.90;;;;;;4957793;28;20478;-62
2021/09/03 10:42:34;;;;;;;1.83;0.50;;;14.60;99.90;;;;;;4955764;28;20130;-66
2021/09/03 10:45:01;;;;;;;1.45;0.85;;;14.60;99.90;;;;;;4957634;28;20047;-65
2021/09/03 10:48:03;;;;;;;0.50;0.40;;;14.70;99.90;;;;;;4957493;28;20071;-64
2021/09/03 10:50:34;;;;;;;2.05;0.47;;;14.80;99.90;;;;;;4954802;28;20114;-67
2021/09/03 10:55:49;;;;;;;0.90;0.50;;;14.70;99.90;;;;;;4957321;28;20047;-67
2021/09/03 10:58:43;;;;;;;1.50;0.80;;;14.80;99.90;;;;;;4956091;28;20082;-66
2021/09/03 11:01:14;;;;;;;1.27;0.60;;;14.90;99.90;;;;;;4957119;28;20068;-62
2021/09/03 11:03:57;;;;;;;2.92;0.80;;;14.90;99.90;;;;;;4957657;28;20047;-66
2021/09/03 11:06:27;;;;;;;1.05;0.70;;;15.00;99.90;;;;;;4956121;28;20074;-68
2021/09/03 11:08:55;;;;;;;1.00;0.45;;;15.00;99.90;;;;;;4957000;28;20490;-66
2021/09/03 11:11:33;;;;;;;0.73;0.57;;;15.00;99.90;;;;;;4957282;28;20075;-64
2021/09/03 11:14:09;;;;;;;2.05;0.50;;;14.90;99.90;;;;;;4955947;28;20135;-63
2021/09/03 11:16:47;;;;;;;1.95;0.25;;;14.90;99.90;;;;;;4957226;28;20047;-62
2021/09/03 11:19:19;;;;;;;4.35;0.40;;;15.00;99.90;;;;;;4957352;28;20134;-64
2021/09/03 11:22:00;;;;;;;0.85;0.40;;;15.00;99.90;;;;;;4952609;28;20047;-62
2021/09/03 11:24:43;;;;;;;0.95;0.47;;;14.90;99.90;;;;;;4954033;28;20044;-62
2021/09/03 11:27:13;;;;;;;3.83;0.90;;;14.90;99.90;;;;;;4954226;28;20051;-64
2021/09/03 11:29:57;;;;;;;0.93;0.75;;;14.90;99.90;;;;;;4954618;28;20427;-66
2021/09/03 11:32:24;;;;;;;1.80;0.75;;;15.00;99.90;;;;;;4951762;28;20125;-63
2021/09/03 11:35:04;;;;;;;1.25;0.57;;;15.10;99.90;;;;;;4954222;28;20513;-66
2021/09/03 11:37:40;;;;;;;2.05;0.88;;;15.20;99.90;;;;;;4954648;28;20075;-66
2021/09/03 11:40:15;;;;;;;2.10;0.47;;;15.10;99.90;;;;;;4952534;28;20505;-65
2021/09/03 11:42:45;;;;;;;1.65;0.60;;;15.10;99.90;;;;;;4954031;28;20051;-67
2021/09/03 11:45:32;;;;;;;0.95;0.35;;;15.10;99.90;;;;;;4954219;28;20405;-66
2021/09/03 11:48:02;;;;;;;2.13;0.88;;;15.10;99.90;;;;;;4952585;28;20579;-63
2021/09/03 11:50:32;;;;;;;1.95;0.90;;;15.00;99.90;;;;;;4953925;28;20102;-63
2021/09/03 11:53:02;;;;;;;0.90;0.43;;;15.00;99.90;;;;;;4954008;28;20142;-64
2021/09/03 11:55:39;;;;;;;0.75;0.40;;;15.10;99.90;;;;;;4953945;28;20458;-66
2021/09/03 11:58:10;;;;;;;0.70;0.40;;;15.20;99.90;;;;;;4952089;28;20126;-64
2021/09/03 12:00:42;;;;;;;0.70;0.25;;;15.10;99.90;;;;;;4953693;28;20047;-64
2021/09/03 12:03:32;;;;;;;0.90;0.75;;;15.10;99.90;;;;;;4953453;28;20043;-64
2021/09/03 12:06:01;;;;;;;2.47;0.63;;;15.10;99.90;;;;;;4952126;28;20507;-63
2021/09/03 12:08:37;;;;;;;0.75;0.45;;;15.20;99.90;;;;;;4953692;28;20043;-65
2021/09/03 12:11:17;;;;;;;2.10;0.47;;;15.20;99.90;;;;;;4953701;28;20051;-67
2021/09/03 12:13:58;;;;;;;0.35;0.35;;;15.30;99.90;;;;;;4952028;28;20071;-65
2021/09/03 12:16:30;;;;;;;2.47;0.55;;;15.40;99.90;;;;;;4953773;28;20408;-65
2021/09/03 12:18:59;;;;;;;2.53;0.60;;;15.20;99.90;;;;;;4953654;28;20055;-64
2021/09/03 12:21:32;;;;;;;3.60;0.63;;;15.30;99.90;;;;;;4953746;28;20075;-67
2021/09/03 12:24:02;;;;;;;0.40;0.40;;;15.30;99.90;;;;;;4952232;28;20082;-67
2021/09/03 12:26:57;;;;;;;4.60;1.05;;;15.40;99.90;;;;;;4953088;28;20039;-64
2021/09/03 12:29:28;;;;;;;0.80;0.55;;;15.40;99.90;;;;;;4953021;28;20047;-68
2021/09/03 12:32:00;;;;;;;1.02;0.60;;;15.40;99.90;;;;;;4951507;28;20399;-69
2021/09/03 12:34:29;;;;;;;1.05;0.70;;;15.40;99.90;;;;;;4952903;28;20081;-65
2021/09/03 12:37:03;;;;;;;0.50;0.35;;;15.40;99.90;;;;;;4953072;28;20085;-65
2021/09/03 12:39:31;;;;;;;1.75;0.63;;;15.40;99.90;;;;;;4953253;28;20461;-67
2021/09/03 12:42:03;;;;;;;0.95;0.40;;;15.40;99.90;;;;;;4951100;28;20071;-71
2021/09/03 12:44:33;;;;;;;1.85;1.00;;;15.40;99.90;;;;;;4953085;28;20395;-68
2021/09/03 12:47:01;;;;;;;;;;;15.50;99.90;;;;;;4953031;28;20070;-68
2021/09/03 12:49:32;;;;;;;0.88;0.63;;;15.60;99.90;;;;;;4952839;28;19961;-68
2021/09/03 12:52:02;;;;;;;0.52;0.40;;;15.60;99.90;;;;;;4951116;28;20048;-68
2021/09/03 12:54:30;;;;;;;0.95;0.32;;;15.60;99.90;;;;;;4952225;28;20139;-73
2021/09/03 12:56:57;;;;;;;0.30;0.30;;;15.50;99.90;;;;;;4952364;28;20078;-69
2021/09/03 12:59:24;;;;;;;0.82;0.68;;;15.50;99.90;;;;;;4952262;28;20043;-70
2021/09/03 13:01:51;;;;;;;0.88;0.70;;;15.60;99.90;;;;;;4950206;28;20078;-65